Conde, South Dakota
Current Conditions -  °F | °C
As of 12:04 PM on Thursday 30 Oct 2014 (Local Time) from KABR Reporting Station
Overcast Overcast  
Wind Chill: 32°   Ceiling: 1500
Heat Index: 41°   Visibility: 10mi
Dew Point: 33°   Wind: 21mph
Humidity: 73%   Direction: 10°N
Pressure: 30.26"   Gusts: 29mph
Location:  45.16°N, 98.1°W
Report Text: KABR 301704Z AUTO 01018G25KT 10SM OVC015 05/01 A3026 RMK AO2 T00500006
Loading
Personal Weather Stations






























Interactive Weather Map
Tropical Storm Tracking
New forecast layout! Learn more

10-Day Weather Forecast

Advertisements
Track Severe Weather on mobile